sensor_id;sensor_type;location;lat;lon;timestamp;pressure;altitude;pressure_sealevel;temperature;humidity
30873;BME280;17579;42.690;2.586;2023-04-16T00:01:22;97491.63;;;12.39;41.76
30873;BME280;17579;42.690;2.586;2023-04-16T00:03:48;97505.44;;;12.43;41.70
30873;BME280;17579;42.690;2.586;2023-04-16T00:06:13;97516.19;;;12.41;41.66
30873;BME280;17579;42.690;2.586;2023-04-16T00:08:39;97516.06;;;12.43;41.73
30873;BME280;17579;42.690;2.586;2023-04-16T00:11:05;97509.06;;;12.42;42.13
30873;BME280;17579;42.690;2.586;2023-04-16T00:13:31;97518.84;;;12.41;42.09
30873;BME280;17579;42.690;2.586;2023-04-16T00:15:57;97517.03;;;12.42;42.21
30873;BME280;17579;42.690;2.586;2023-04-16T00:18:23;97526.81;;;12.41;42.30
30873;BME280;17579;42.690;2.586;2023-04-16T00:20:49;97514.06;;;12.45;42.33
30873;BME280;17579;42.690;2.586;2023-04-16T00:23:15;97506.41;;;12.42;42.45
30873;BME280;17579;42.690;2.586;2023-04-16T00:25:41;97480.81;;;12.33;42.72
30873;BME280;17579;42.690;2.586;2023-04-16T00:28:07;97499.94;;;12.26;42.90
30873;BME280;17579;42.690;2.586;2023-04-16T00:30:33;97498.88;;;12.19;43.04
30873;BME280;17579;42.690;2.586;2023-04-16T00:32:59;97491.53;;;12.13;43.43
30873;BME280;17579;42.690;2.586;2023-04-16T00:35:25;97489.63;;;12.05;43.80
30873;BME280;17579;42.690;2.586;2023-04-16T00:37:51;97487.81;;;12.06;43.51
30873;BME280;17579;42.690;2.586;2023-04-16T00:40:17;97486.97;;;12.05;43.50
30873;BME280;17579;42.690;2.586;2023-04-16T00:42:42;97520.91;;;12.02;43.54
30873;BME280;17579;42.690;2.586;2023-04-16T00:45:09;97535.69;;;12.04;43.56
30873;BME280;17579;42.690;2.586;2023-04-16T00:47:34;97553.94;;;12.07;43.50
30873;BME280;17579;42.690;2.586;2023-04-16T00:50:02;97552.81;;;12.10;43.67
30873;BME280;17579;42.690;2.586;2023-04-16T00:52:30;97558.63;;;12.13;44.15
30873;BME280;17579;42.690;2.586;2023-04-16T00:54:56;97546.59;;;12.19;43.84
30873;BME280;17579;42.690;2.586;2023-04-16T00:57:22;97544.22;;;12.26;43.66
30873;BME280;17579;42.690;2.586;2023-04-16T00:59:48;97532.75;;;12.25;43.39
30873;BME280;17579;42.690;2.586;2023-04-16T01:02:15;97549.66;;;12.24;43.52
30873;BME280;17579;42.690;2.586;2023-04-16T01:04:41;97545.50;;;12.22;43.70
30873;BME280;17579;42.690;2.586;2023-04-16T01:07:07;97539.63;;;12.18;43.58
30873;BME280;17579;42.690;2.586;2023-04-16T01:09:32;97543.28;;;12.17;43.40
30873;BME280;17579;42.690;2.586;2023-04-16T01:11:58;97544.09;;;12.18;43.57
30873;BME280;17579;42.690;2.586;2023-04-16T01:14:24;97551.25;;;12.17;43.45
30873;BME280;17579;42.690;2.586;2023-04-16T01:19:24;97553.78;;;12.09;43.62
30873;BME280;17579;42.690;2.586;2023-04-16T01:21:50;97540.81;;;12.06;43.63
30873;BME280;17579;42.690;2.586;2023-04-16T01:24:16;97531.91;;;12.07;43.57
30873;BME280;17579;42.690;2.586;2023-04-16T01:26:41;97504.00;;;12.03;43.60
30873;BME280;17579;42.690;2.586;2023-04-16T01:29:07;97494.84;;;11.97;43.56
30873;BME280;17579;42.690;2.586;2023-04-16T01:31:32;97483.38;;;11.96;43.34
30873;BME280;17579;42.690;2.586;2023-04-16T01:33:58;97468.47;;;11.95;43.66
30873;BME280;17579;42.690;2.586;2023-04-16T01:36:23;97499.84;;;11.90;43.78
30873;BME280;17579;42.690;2.586;2023-04-16T01:38:49;97508.78;;;11.89;43.49
30873;BME280;17579;42.690;2.586;2023-04-16T01:41:15;97520.38;;;11.88;43.81
30873;BME280;17579;42.690;2.586;2023-04-16T01:43:40;97516.72;;;11.89;43.62
30873;BME280;17579;42.690;2.586;2023-04-16T01:46:12;97540.19;;;11.84;43.42
30873;BME280;17579;42.690;2.586;2023-04-16T01:48:39;97539.59;;;11.90;43.71
30873;BME280;17579;42.690;2.586;2023-04-16T01:51:04;97541.13;;;11.93;43.53
30873;BME280;17579;42.690;2.586;2023-04-16T01:53:30;97539.34;;;11.93;43.49
30873;BME280;17579;42.690;2.586;2023-04-16T01:55:55;97547.28;;;11.93;43.59
30873;BME280;17579;42.690;2.586;2023-04-16T01:58:21;97523.84;;;11.89;43.49
30873;BME280;17579;42.690;2.586;2023-04-16T02:00:47;97528.75;;;11.84;43.50
30873;BME280;17579;42.690;2.586;2023-04-16T02:03:12;97533.22;;;11.83;43.59
30873;BME280;17579;42.690;2.586;2023-04-16T02:05:38;97534.91;;;11.84;43.59
30873;BME280;17579;42.690;2.586;2023-04-16T02:08:04;97534.34;;;11.81;43.91
30873;BME280;17579;42.690;2.586;2023-04-16T02:10:29;97531.69;;;11.81;43.71
30873;BME280;17579;42.690;2.586;2023-04-16T02:12:55;97530.88;;;11.80;43.70
30873;BME280;17579;42.690;2.586;2023-04-16T02:15:21;97530.31;;;11.76;43.95
30873;BME280;17579;42.690;2.586;2023-04-16T02:17:48;97533.81;;;11.77;43.77
30873;BME280;17579;42.690;2.586;2023-04-16T02:20:18;97531.16;;;11.77;43.84
30873;BME280;17579;42.690;2.586;2023-04-16T02:22:44;97536.06;;;11.72;43.83
30873;BME280;17579;42.690;2.586;2023-04-16T02:25:09;97537.72;;;11.73;43.68
30873;BME280;17579;42.690;2.586;2023-04-16T02:27:35;97536.75;;;11.74;43.75
30873;BME280;17579;42.690;2.586;2023-04-16T02:30:01;97529.78;;;11.73;43.69
30873;BME280;17579;42.690;2.586;2023-04-16T02:32:28;97545.97;;;11.70;43.93
30873;BME280;17579;42.690;2.586;2023-04-16T02:34:54;97543.63;;;11.67;43.91
30873;BME280;17579;42.690;2.586;2023-04-16T02:37:21;97548.50;;;11.61;44.16
30873;BME280;17579;42.690;2.586;2023-04-16T02:39:47;97546.44;;;11.55;44.25
30873;BME280;17579;42.690;2.586;2023-04-16T02:42:14;97542.13;;;11.54;44.31
30873;BME280;17579;42.690;2.586;2023-04-16T02:44:41;97551.19;;;11.52;44.12
30873;BME280;17579;42.690;2.586;2023-04-16T02:47:06;97559.13;;;11.52;44.16
30873;BME280;17579;42.690;2.586;2023-04-16T02:49:32;97563.75;;;11.50;44.07
30873;BME280;17579;42.690;2.586;2023-04-16T02:52:00;97560.81;;;11.53;44.18
30873;BME280;17579;42.690;2.586;2023-04-16T02:54:25;97561.47;;;11.55;43.95
30873;BME280;17579;42.690;2.586;2023-04-16T02:56:51;97552.56;;;11.56;43.81
30873;BME280;17579;42.690;2.586;2023-04-16T02:59:16;97559.97;;;11.52;43.89
30873;BME280;17579;42.690;2.586;2023-04-16T03:01:42;97554.53;;;11.54;44.05
30873;BME280;17579;42.690;2.586;2023-04-16T03:04:08;97552.03;;;11.52;43.91
30873;BME280;17579;42.690;2.586;2023-04-16T03:06:33;97538.06;;;11.50;44.02
30873;BME280;17579;42.690;2.586;2023-04-16T03:08:59;97543.53;;;11.49;43.98
30873;BME280;17579;42.690;2.586;2023-04-16T03:11:25;97532.41;;;11.45;44.02
30873;BME280;17579;42.690;2.586;2023-04-16T03:13:51;97530.72;;;11.44;43.94
30873;BME280;17579;42.690;2.586;2023-04-16T03:16:16;97512.47;;;11.41;43.75
30873;BME280;17579;42.690;2.586;2023-04-16T03:18:42;97521.38;;;11.40;43.77
30873;BME280;17579;42.690;2.586;2023-04-16T03:21:07;97496.72;;;11.39;43.65
30873;BME280;17579;42.690;2.586;2023-04-16T03:23:33;97500.50;;;11.37;43.70
30873;BME280;17579;42.690;2.586;2023-04-16T03:26:00;97510.13;;;11.38;43.85
30873;BME280;17579;42.690;2.586;2023-04-16T03:28:26;97513.44;;;11.40;43.74
30873;BME280;17579;42.690;2.586;2023-04-16T03:30:52;97497.25;;;11.43;43.68
30873;BME280;17579;42.690;2.586;2023-04-16T03:33:19;97495.03;;;11.38;43.52
30873;BME280;17579;42.690;2.586;2023-04-16T03:35:45;97491.69;;;11.36;43.54
30873;BME280;17579;42.690;2.586;2023-04-16T03:38:10;97493.50;;;11.36;43.63
30873;BME280;17579;42.690;2.586;2023-04-16T03:40:36;97472.34;;;11.36;43.42
30873;BME280;17579;42.690;2.586;2023-04-16T03:43:03;97487.25;;;11.37;43.63
30873;BME280;17579;42.690;2.586;2023-04-16T03:45:28;97479.00;;;11.40;43.41
30873;BME280;17579;42.690;2.586;2023-04-16T03:47:54;97475.25;;;11.42;43.40
30873;BME280;17579;42.690;2.586;2023-04-16T03:50:20;97467.31;;;11.42;43.40
30873;BME280;17579;42.690;2.586;2023-04-16T03:52:46;97469.09;;;11.42;43.43
30873;BME280;17579;42.690;2.586;2023-04-16T03:55:13;97467.31;;;11.42;43.55
30873;BME280;17579;42.690;2.586;2023-04-16T03:57:39;97468.28;;;11.41;43.26
30873;BME280;17579;42.690;2.586;2023-04-16T04:00:06;97482.47;;;11.40;43.58
30873;BME280;17579;42.690;2.586;2023-04-16T04:02:33;97480.84;;;11.39;43.70
30873;BME280;17579;42.690;2.586;2023-04-16T04:04:58;97484.16;;;11.41;43.35
30873;BME280;17579;42.690;2.586;2023-04-16T04:07:24;97480.69;;;11.41;43.35
30873;BME280;17579;42.690;2.586;2023-04-16T04:09:49;97480.69;;;11.41;43.21
30873;BME280;17579;42.690;2.586;2023-04-16T04:12:15;97474.69;;;11.39;43.16
30873;BME280;17579;42.690;2.586;2023-04-16T04:17:09;97477.47;;;11.37;43.24
30873;BME280;17579;42.690;2.586;2023-04-16T04:19:35;97479.97;;;11.39;43.38
30873;BME280;17579;42.690;2.586;2023-04-16T04:22:01;97485.44;;;11.37;43.24
30873;BME280;17579;42.690;2.586;2023-04-16T04:24:26;97475.81;;;11.36;43.05
30873;BME280;17579;42.690;2.586;2023-04-16T04:26:52;97467.75;;;11.38;43.09
30873;BME280;17579;42.690;2.586;2023-04-16T04:29:18;97467.75;;;11.38;42.98
30873;BME280;17579;42.690;2.586;2023-04-16T04:31:43;97475.28;;;11.33;43.09
30873;BME280;17579;42.690;2.586;2023-04-16T04:34:09;97467.47;;;11.31;43.00
30873;BME280;17579;42.690;2.586;2023-04-16T04:36:35;97475.28;;;11.33;42.97
30873;BME280;17579;42.690;2.586;2023-04-16T04:39:00;97478.75;;;11.33;42.82
30873;BME280;17579;42.690;2.586;2023-04-16T04:41:26;97476.94;;;11.34;42.64
30873;BME280;17579;42.690;2.586;2023-04-16T04:43:51;97474.31;;;11.34;42.83
30873;BME280;17579;42.690;2.586;2023-04-16T04:46:17;97477.91;;;11.33;42.88
30873;BME280;17579;42.690;2.586;2023-04-16T04:48:43;97472.78;;;11.31;42.83
30873;BME280;17579;42.690;2.586;2023-04-16T04:51:08;97462.19;;;11.31;42.80
30873;BME280;17579;42.690;2.586;2023-04-16T04:53:34;97456.31;;;11.27;42.81
30873;BME280;17579;42.690;2.586;2023-04-16T04:56:00;97452.03;;;11.26;42.92
30873;BME280;17579;42.690;2.586;2023-04-16T04:58:25;97446.16;;;11.23;42.78
30873;BME280;17579;42.690;2.586;2023-04-16T05:00:51;97439.34;;;11.20;42.98
30873;BME280;17579;42.690;2.586;2023-04-16T05:03:18;97438.66;;;11.18;43.06
30873;BME280;17579;42.690;2.586;2023-04-16T05:05:44;97442.13;;;11.19;42.85
30873;BME280;17579;42.690;2.586;2023-04-16T05:08:10;97439.63;;;11.17;42.47
30873;BME280;17579;42.690;2.586;2023-04-16T05:10:35;97437.69;;;11.19;42.82
30873;BME280;17579;42.690;2.586;2023-04-16T05:13:01;97444.78;;;11.19;42.33
30873;BME280;17579;42.690;2.586;2023-04-16T05:15:26;97437.69;;;11.19;42.25
30873;BME280;17579;42.690;2.586;2023-04-16T05:17:52;97430.44;;;11.21;41.84
30873;BME280;17579;42.690;2.586;2023-04-16T05:20:21;97431.00;;;11.25;42.00
30873;BME280;17579;42.690;2.586;2023-04-16T05:22:47;97437.09;;;11.25;41.90
30873;BME280;17579;42.690;2.586;2023-04-16T05:25:13;97419.25;;;11.27;41.94
30873;BME280;17579;42.690;2.586;2023-04-16T05:27:39;97422.59;;;11.30;41.71
30873;BME280;17579;42.690;2.586;2023-04-16T05:30:05;97413.81;;;11.29;41.74
30873;BME280;17579;42.690;2.586;2023-04-16T05:32:31;97416.88;;;11.34;41.67
30873;BME280;17579;42.690;2.586;2023-04-16T05:34:56;97414.78;;;11.38;41.61
30873;BME280;17579;42.690;2.586;2023-04-16T05:37:22;97401.75;;;11.44;41.45
30873;BME280;17579;42.690;2.586;2023-04-16T05:39:48;97395.44;;;11.55;41.28
30873;BME280;17579;42.690;2.586;2023-04-16T05:42:13;97404.47;;;11.63;41.20
30873;BME280;17579;42.690;2.586;2023-04-16T05:44:39;97394.41;;;11.66;41.17
30873;BME280;17579;42.690;2.586;2023-04-16T05:47:05;97400.81;;;11.64;41.25
30873;BME280;17579;42.690;2.586;2023-04-16T05:49:35;97403.47;;;11.64;41.27
30873;BME280;17579;42.690;2.586;2023-04-16T05:52:02;97406.00;;;11.65;41.13
30873;BME280;17579;42.690;2.586;2023-04-16T05:54:28;97397.00;;;11.76;40.85
30873;BME280;17579;42.690;2.586;2023-04-16T05:56:54;97400.63;;;12.03;40.44
30873;BME280;17579;42.690;2.586;2023-04-16T05:59:20;97412.75;;;12.41;39.96
30873;BME280;17579;42.690;2.586;2023-04-16T06:01:46;97404.66;;;12.69;39.31
30873;BME280;17579;42.690;2.586;2023-04-16T06:04:11;97417.94;;;12.95;38.63
30873;BME280;17579;42.690;2.586;2023-04-16T06:06:37;97426.91;;;13.21;38.24
30873;BME280;17579;42.690;2.586;2023-04-16T06:09:04;97425.38;;;13.44;37.78
30873;BME280;17579;42.690;2.586;2023-04-16T06:11:30;97426.34;;;13.69;37.85
30873;BME280;17579;42.690;2.586;2023-04-16T06:13:56;97435.41;;;14.01;37.35
30873;BME280;17579;42.690;2.586;2023-04-16T06:16:21;97431.78;;;14.19;36.76
30873;BME280;17579;42.690;2.586;2023-04-16T06:18:47;97442.47;;;14.35;36.10
30873;BME280;17579;42.690;2.586;2023-04-16T06:21:13;97427.66;;;14.49;35.96
30873;BME280;17579;42.690;2.586;2023-04-16T06:23:38;97440.50;;;14.70;35.99
30873;BME280;17579;42.690;2.586;2023-04-16T06:26:04;97425.00;;;14.90;35.88
30873;BME280;17579;42.690;2.586;2023-04-16T06:28:30;97442.81;;;14.98;34.97
30873;BME280;17579;42.690;2.586;2023-04-16T06:30:56;97435.31;;;15.10;35.01
30873;BME280;17579;42.690;2.586;2023-04-16T06:33:22;97433.41;;;15.35;35.04
30873;BME280;17579;42.690;2.586;2023-04-16T06:35:47;97441.38;;;15.44;34.25
30873;BME280;17579;42.690;2.586;2023-04-16T06:38:13;97435.72;;;15.47;33.98
30873;BME280;17579;42.690;2.586;2023-04-16T06:40:39;97418.03;;;15.54;33.72
30873;BME280;17579;42.690;2.586;2023-04-16T06:43:05;97389.47;;;15.71;33.57
30873;BME280;17579;42.690;2.586;2023-04-16T06:45:31;97400.78;;;15.81;33.69
30873;BME280;17579;42.690;2.586;2023-04-16T06:47:57;97412.72;;;15.93;33.52
30873;BME280;17579;42.690;2.586;2023-04-16T06:50:24;97405.59;;;16.09;33.19
30873;BME280;17579;42.690;2.586;2023-04-16T06:52:51;97401.00;;;16.26;33.26
30873;BME280;17579;42.690;2.586;2023-04-16T06:55:17;97423.28;;;16.33;33.04
30873;BME280;17579;42.690;2.586;2023-04-16T06:57:42;97415.91;;;16.43;32.65
30873;BME280;17579;42.690;2.586;2023-04-16T07:00:08;97407.34;;;16.48;31.60
30873;BME280;17579;42.690;2.586;2023-04-16T07:02:34;97429.19;;;16.52;32.27
30873;BME280;17579;42.690;2.586;2023-04-16T07:05:00;97437.72;;;16.70;32.45
30873;BME280;17579;42.690;2.586;2023-04-16T07:07:25;97412.19;;;16.91;31.90
30873;BME280;17579;42.690;2.586;2023-04-16T07:09:51;97424.75;;;17.05;31.63
30873;BME280;17579;42.690;2.586;2023-04-16T07:12:17;97433.41;;;17.22;31.20
30873;BME280;17579;42.690;2.586;2023-04-16T07:14:42;97429.41;;;17.41;31.04
30873;BME280;17579;42.690;2.586;2023-04-16T07:17:08;97434.44;;;17.51;30.31
30873;BME280;17579;42.690;2.586;2023-04-16T07:19:34;97428.81;;;17.61;30.53
30873;BME280;17579;42.690;2.586;2023-04-16T07:22:00;97411.34;;;17.80;30.23
30873;BME280;17579;42.690;2.586;2023-04-16T07:24:26;97414.97;;;17.87;30.11
30873;BME280;17579;42.690;2.586;2023-04-16T07:26:51;97414.19;;;18.08;29.08
30873;BME280;17579;42.690;2.586;2023-04-16T07:29:17;97409.69;;;18.09;29.11
30873;BME280;17579;42.690;2.586;2023-04-16T07:31:44;97426.09;;;18.06;29.41
30873;BME280;17579;42.690;2.586;2023-04-16T07:34:10;97407.72;;;18.17;28.73
30873;BME280;17579;42.690;2.586;2023-04-16T07:36:35;97381.97;;;18.16;28.51
30873;BME280;17579;42.690;2.586;2023-04-16T07:39:01;97403.38;;;18.16;28.35
30873;BME280;17579;42.690;2.586;2023-04-16T07:41:27;97392.59;;;18.31;28.99
30873;BME280;17579;42.690;2.586;2023-04-16T07:43:54;97380.09;;;18.39;27.88
30873;BME280;17579;42.690;2.586;2023-04-16T07:46:19;97397.44;;;18.43;28.46
30873;BME280;17579;42.690;2.586;2023-04-16T07:48:46;97385.50;;;18.67;28.29
30873;BME280;17579;42.690;2.586;2023-04-16T07:51:12;97354.38;;;18.87;28.23
30873;BME280;17579;42.690;2.586;2023-04-16T07:53:38;97371.09;;;18.90;27.94
30873;BME280;17579;42.690;2.586;2023-04-16T07:56:03;97342.03;;;18.93;28.17
30873;BME280;17579;42.690;2.586;2023-04-16T07:58:29;97338.84;;;18.83;27.65
30873;BME280;17579;42.690;2.586;2023-04-16T08:00:55;97348.88;;;18.74;27.73
30873;BME280;17579;42.690;2.586;2023-04-16T08:03:21;97350.97;;;18.79;28.06
30873;BME280;17579;42.690;2.586;2023-04-16T08:05:46;97355.22;;;18.88;28.22
30873;BME280;17579;42.690;2.586;2023-04-16T08:08:12;97349.47;;;18.91;28.70
30873;BME280;17579;42.690;2.586;2023-04-16T08:10:38;97354.69;;;18.78;28.29
30873;BME280;17579;42.690;2.586;2023-04-16T08:13:04;97350.63;;;18.60;28.21
30873;BME280;17579;42.690;2.586;2023-04-16T08:15:30;97363.22;;;18.38;28.80
30873;BME280;17579;42.690;2.586;2023-04-16T08:17:56;97360.03;;;18.28;28.99
30873;BME280;17579;42.690;2.586;2023-04-16T08:20:21;97357.88;;;18.16;29.06
30873;BME280;17579;42.690;2.586;2023-04-16T08:22:47;97368.78;;;18.15;29.92
30873;BME280;17579;42.690;2.586;2023-04-16T08:25:14;97369.22;;;18.18;29.49
30873;BME280;17579;42.690;2.586;2023-04-16T08:27:40;97393.25;;;18.12;29.67
30873;BME280;17579;42.690;2.586;2023-04-16T08:30:06;97390.56;;;18.12;29.85
30873;BME280;17579;42.690;2.586;2023-04-16T08:32:32;97386.72;;;17.99;29.13
30873;BME280;17579;42.690;2.586;2023-04-16T08:34:58;97375.13;;;17.77;29.39
30873;BME280;17579;42.690;2.586;2023-04-16T08:37:24;97396.53;;;17.62;29.84
30873;BME280;17579;42.690;2.586;2023-04-16T08:39:50;97407.81;;;17.58;30.41
30873;BME280;17579;42.690;2.586;2023-04-16T08:42:20;97402.25;;;17.59;30.08
30873;BME280;17579;42.690;2.586;2023-04-16T08:44:48;97410.19;;;17.53;30.46
30873;BME280;17579;42.690;2.586;2023-04-16T08:47:16;97417.13;;;17.47;31.01
30873;BME280;17579;42.690;2.586;2023-04-16T08:49:43;97419.06;;;17.53;30.95
30873;BME280;17579;42.690;2.586;2023-04-16T08:52:15;97415.81;;;17.58;30.57
30873;BME280;17579;42.690;2.586;2023-04-16T08:54:47;97419.97;;;17.45;30.81
30873;BME280;17579;42.690;2.586;2023-04-16T08:57:18;97404.47;;;17.41;30.57
30873;BME280;17579;42.690;2.586;2023-04-16T08:59:45;97429.66;;;17.31;30.58
30873;BME280;17579;42.690;2.586;2023-04-16T09:02:12;97411.03;;;17.23;30.70
30873;BME280;17579;42.690;2.586;2023-04-16T09:04:38;97412.16;;;17.14;30.35
30873;BME280;17579;42.690;2.586;2023-04-16T09:07:07;97404.38;;;17.04;30.73
30873;BME280;17579;42.690;2.586;2023-04-16T09:09:32;97400.88;;;17.04;30.95
30873;BME280;17579;42.690;2.586;2023-04-16T09:11:58;97405.94;;;16.99;30.84
30873;BME280;17579;42.690;2.586;2023-04-16T09:14:24;97408.69;;;16.90;31.08
30873;BME280;17579;42.690;2.586;2023-04-16T09:16:52;97392.28;;;16.93;30.58
30873;BME280;17579;42.690;2.586;2023-04-16T09:19:19;97389.16;;;16.90;30.03
30873;BME280;17579;42.690;2.586;2023-04-16T09:21:46;97381.19;;;16.82;30.93
30873;BME280;17579;42.690;2.586;2023-04-16T09:24:12;97389.84;;;16.84;30.74
30873;BME280;17579;42.690;2.586;2023-04-16T09:26:39;97374.28;;;16.87;30.20
30873;BME280;17579;42.690;2.586;2023-04-16T09:29:06;97388.50;;;16.88;30.87
30873;BME280;17579;42.690;2.586;2023-04-16T09:31:33;97376.56;;;16.99;30.76
30873;BME280;17579;42.690;2.586;2023-04-16T09:36:27;97380.06;;;17.14;30.56
30873;BME280;17579;42.690;2.586;2023-04-16T09:38:53;97391.59;;;17.14;30.46
30873;BME280;17579;42.690;2.586;2023-04-16T09:41:24;97377.22;;;17.16;31.20
30873;BME280;17579;42.690;2.586;2023-04-16T09:43:53;97397.28;;;17.26;30.97
30873;BME280;17579;42.690;2.586;2023-04-16T09:46:20;97378.31;;;17.36;30.79
30873;BME280;17579;42.690;2.586;2023-04-16T09:48:46;97388.19;;;17.36;30.73
30873;BME280;17579;42.690;2.586;2023-04-16T09:51:11;97387.34;;;17.35;30.52
30873;BME280;17579;42.690;2.586;2023-04-16T09:53:37;97396.03;;;17.37;30.77
30873;BME280;17579;42.690;2.586;2023-04-16T09:56:05;97379.97;;;17.37;30.25
30873;BME280;17579;42.690;2.586;2023-04-16T09:58:31;97368.63;;;17.35;30.33
30873;BME280;17579;42.690;2.586;2023-04-16T10:03:29;97366.88;;;17.42;30.37
30873;BME280;17579;42.690;2.586;2023-04-16T10:05:59;97375.44;;;17.38;30.61
30873;BME280;17579;42.690;2.586;2023-04-16T10:08:25;97365.47;;;17.46;30.82
30873;BME280;17579;42.690;2.586;2023-04-16T10:10:51;97349.72;;;17.52;30.11
30873;BME280;17579;42.690;2.586;2023-04-16T10:13:18;97358.47;;;17.45;30.13
30873;BME280;17579;42.690;2.586;2023-04-16T10:15:44;97352.13;;;17.46;29.92
30873;BME280;17579;42.690;2.586;2023-04-16T10:18:10;97371.38;;;17.57;29.96
30873;BME280;17579;42.690;2.586;2023-04-16T10:20:36;97374.41;;;17.69;30.12
30873;BME280;17579;42.690;2.586;2023-04-16T10:23:02;97370.41;;;17.79;30.02
30873;BME280;17579;42.690;2.586;2023-04-16T10:25:28;97363.78;;;17.90;29.24
30873;BME280;17579;42.690;2.586;2023-04-16T10:27:56;97368.94;;;17.92;28.72
30873;BME280;17579;42.690;2.586;2023-04-16T10:30:22;97364.13;;;17.87;29.29
30873;BME280;17579;42.690;2.586;2023-04-16T10:32:49;97367.91;;;17.93;28.79
30873;BME280;17579;42.690;2.586;2023-04-16T10:35:18;97362.19;;;17.96;29.09
30873;BME280;17579;42.690;2.586;2023-04-16T10:37:44;97368.56;;;17.95;29.12
30873;BME280;17579;42.690;2.586;2023-04-16T10:40:20;97347.34;;;17.93;29.18
30873;BME280;17579;42.690;2.586;2023-04-16T10:42:53;97364.47;;;17.84;29.26
30873;BME280;17579;42.690;2.586;2023-04-16T10:45:19;97340.13;;;17.94;29.29
30873;BME280;17579;42.690;2.586;2023-04-16T10:47:50;97346.50;;;17.93;28.41
30873;BME280;17579;42.690;2.586;2023-04-16T10:50:16;97369.50;;;17.87;28.56
30873;BME280;17579;42.690;2.586;2023-04-16T10:52:41;97352.69;;;17.93;29.30
30873;BME280;17579;42.690;2.586;2023-04-16T10:55:15;97351.63;;;18.09;29.27
30873;BME280;17579;42.690;2.586;2023-04-16T10:57:41;97345.25;;;18.32;29.03
30873;BME280;17579;42.690;2.586;2023-04-16T11:00:21;97361.38;;;18.39;29.39
30873;BME280;17579;42.690;2.586;2023-04-16T11:02:52;97344.97;;;18.48;28.77
30873;BME280;17579;42.690;2.586;2023-04-16T11:05:21;97344.97;;;18.48;28.63
30873;BME280;17579;42.690;2.586;2023-04-16T11:07:47;97358.69;;;18.39;28.45
30873;BME280;17579;42.690;2.586;2023-04-16T11:10:13;97337.53;;;18.44;28.87
30873;BME280;17579;42.690;2.586;2023-04-16T11:12:41;97341.47;;;18.48;28.57
30873;BME280;17579;42.690;2.586;2023-04-16T11:15:11;97325.41;;;18.48;28.64
30873;BME280;17579;42.690;2.586;2023-04-16T11:17:39;97335.78;;;18.58;28.67
30873;BME280;17579;42.690;2.586;2023-04-16T11:20:07;97313.97;;;18.61;28.58
30873;BME280;17579;42.690;2.586;2023-04-16T11:22:34;97324.88;;;18.59;28.95
30873;BME280;17579;42.690;2.586;2023-04-16T11:25:01;97331.34;;;18.72;28.24
30873;BME280;17579;42.690;2.586;2023-04-16T11:27:29;97331.41;;;18.78;28.65
30873;BME280;17579;42.690;2.586;2023-04-16T11:29:56;97320.19;;;18.96;28.18
30873;BME280;17579;42.690;2.586;2023-04-16T11:32:23;97334.91;;;19.07;28.07
30873;BME280;17579;42.690;2.586;2023-04-16T11:34:50;97324.84;;;19.16;27.92
30873;BME280;17579;42.690;2.586;2023-04-16T11:37:19;97322.22;;;19.23;27.96
30873;BME280;17579;42.690;2.586;2023-04-16T11:39:47;97318.13;;;19.33;28.25
30873;BME280;17579;42.690;2.586;2023-04-16T11:42:18;97325.59;;;19.45;28.23
30873;BME280;17579;42.690;2.586;2023-04-16T11:44:45;97324.38;;;19.47;27.84
30873;BME280;17579;42.690;2.586;2023-04-16T11:47:11;97320.03;;;19.46;27.78
30873;BME280;17579;42.690;2.586;2023-04-16T11:49:37;97319.84;;;19.48;27.88
30873;BME280;17579;42.690;2.586;2023-04-16T11:52:03;97329.78;;;19.54;27.45
30873;BME280;17579;42.690;2.586;2023-04-16T11:54:29;97332.06;;;19.57;27.87
30873;BME280;17579;42.690;2.586;2023-04-16T11:56:59;97336.22;;;19.60;27.28
30873;BME280;17579;42.690;2.586;2023-04-16T11:59:26;97324.22;;;19.55;26.89
30873;BME280;17579;42.690;2.586;2023-04-16T12:01:52;97332.28;;;19.55;27.13
30873;BME280;17579;42.690;2.586;2023-04-16T12:04:21;97307.69;;;19.52;26.95
30873;BME280;17579;42.690;2.586;2023-04-16T12:09:35;97335.28;;;19.39;26.88
30873;BME280;17579;42.690;2.586;2023-04-16T12:12:01;97325.16;;;19.34;26.91
30873;BME280;17579;42.690;2.586;2023-04-16T12:14:27;97335.47;;;19.37;27.56
30873;BME280;17579;42.690;2.586;2023-04-16T12:16:53;97342.56;;;19.45;27.31
30873;BME280;17579;42.690;2.586;2023-04-16T12:19:19;97345.41;;;19.44;26.71
30873;BME280;17579;42.690;2.586;2023-04-16T12:21:47;97335.06;;;19.41;26.87
30873;BME280;17579;42.690;2.586;2023-04-16T12:24:15;97345.19;;;19.38;26.74
30873;BME280;17579;42.690;2.586;2023-04-16T12:26:45;97337.09;;;19.32;26.75
30873;BME280;17579;42.690;2.586;2023-04-16T12:31:38;97340.44;;;19.41;26.78
30873;BME280;17579;42.690;2.586;2023-04-16T12:34:03;97335.34;;;19.52;26.73
30873;BME280;17579;42.690;2.586;2023-04-16T12:36:29;97329.50;;;19.42;26.67
30873;BME280;17579;42.690;2.586;2023-04-16T12:38:55;97320.03;;;19.39;26.54
30873;BME280;17579;42.690;2.586;2023-04-16T12:41:21;97328.09;;;19.39;26.94
30873;BME280;17579;42.690;2.586;2023-04-16T12:43:47;97319.44;;;19.44;26.53
30873;BME280;17579;42.690;2.586;2023-04-16T12:46:12;97316.94;;;19.43;26.58
30873;BME280;17579;42.690;2.586;2023-04-16T12:48:38;97308.91;;;19.43;26.66
30873;BME280;17579;42.690;2.586;2023-04-16T12:51:04;97303.28;;;19.37;26.47
30873;BME280;17579;42.690;2.586;2023-04-16T12:53:29;97302.88;;;19.34;26.97
30873;BME280;17579;42.690;2.586;2023-04-16T12:55:55;97296.25;;;19.30;27.01
30873;BME280;17579;42.690;2.586;2023-04-16T12:58:21;97286.97;;;19.26;26.96
30873;BME280;17579;42.690;2.586;2023-04-16T13:00:46;97291.06;;;19.21;27.15
30873;BME280;17579;42.690;2.586;2023-04-16T13:03:12;97298.09;;;19.23;26.85
30873;BME280;17579;42.690;2.586;2023-04-16T13:05:39;97267.91;;;19.07;26.78
30873;BME280;17579;42.690;2.586;2023-04-16T13:08:04;97261.22;;;18.90;27.13
30873;BME280;17579;42.690;2.586;2023-04-16T13:10:30;97255.16;;;18.81;26.92